Time;durP1;ratioP1;P1;durP2;ratioP2;P2;SDS_P1;SDS_P2;PMS_P1;PMS_P2;Temp;Humidity;BMP_temperature;BMP_pressure;BME280_temperature;BME280_humidity;BME280_pressure;Samples;Min_cycle;Max_cycle;Signal;HPM_P1;HPM_P2
2024/03/14 00:00:05;;;;;;;11.65;6.63;;;;;;;-141.50;100.00;63355.56;4998414;28;20535;-83
2024/03/14 00:02:37;;;;;;;14.27;6.22;;;;;;;-141.50;100.00;63355.56;5029019;28;20037;-81
2024/03/14 00:05:04;;;;;;;17.98;7.30;;;;;;;-141.50;100.00;63355.56;5004588;28;20053;-84
2024/03/14 00:07:31;;;;;;;10.95;6.30;;;;;;;-141.50;100.00;63355.56;5006454;28;20121;-82
2024/03/14 00:09:58;;;;;;;14.23;6.63;;;;;;;-141.50;100.00;63355.56;5003734;28;20065;-82
2024/03/14 00:12:24;;;;;;;11.63;6.43;;;;;;;-141.50;100.00;63355.56;5000316;28;20567;-80
2024/03/14 00:14:51;;;;;;;12.68;6.80;;;;;;;-141.50;100.00;63355.56;5001071;28;20209;-82
2024/03/14 00:17:18;;;;;;;11.30;6.38;;;;;;;-141.50;100.00;63355.56;4998468;28;20066;-82
2024/03/14 00:19:49;;;;;;;12.48;7.05;;;;;;;-141.50;100.00;63355.56;5017444;28;20678;-82
2024/03/14 00:22:19;;;;;;;10.50;6.50;;;;;;;-141.50;100.00;63355.56;5027597;28;20042;-79
2024/03/14 00:24:47;;;;;;;12.35;6.57;;;;;;;-141.50;100.00;63355.56;5005203;28;20112;-81
2024/03/14 00:27:14;;;;;;;12.98;7.57;;;;;;;-141.50;100.00;63355.56;5011315;28;20296;-82
2024/03/14 00:29:45;;;;;;;14.35;7.38;;;;;;;-141.50;100.00;63355.56;5012591;28;20069;-82
2024/03/14 00:32:16;;;;;;;14.15;7.57;;;;;;;-141.50;100.00;63355.56;5015155;28;20053;-82
2024/03/14 00:34:42;;;;;;;13.98;7.45;;;;;;;-141.50;100.00;63355.56;5013111;28;20050;-81
2024/03/14 00:37:09;;;;;;;14.95;8.65;;;;;;;-141.50;100.00;63355.56;5011449;28;20535;-82
2024/03/14 00:39:36;;;;;;;13.75;7.93;;;;;;;-141.50;100.00;63355.56;4992269;28;20050;-84
2024/03/14 00:42:03;;;;;;;15.82;9.23;;;;;;;-141.50;100.00;63355.56;5005492;28;20562;-81
2024/03/14 00:44:31;;;;;;;16.00;8.52;;;;;;;-141.50;100.00;63355.56;4994522;28;20049;-82
2024/03/14 00:46:58;;;;;;;21.92;9.13;;;;;;;-141.50;100.00;63355.56;5001610;28;20057;-82
2024/03/14 00:49:25;;;;;;;18.42;9.68;;;;;;;-141.50;100.00;63355.56;5003278;28;20038;-81
2024/03/14 00:51:51;;;;;;;17.90;9.68;;;;;;;-141.50;100.00;63355.56;5034392;28;20781;-87
2024/03/14 00:54:18;;;;;;;18.05;9.98;;;;;;;-141.50;100.00;63355.56;5027010;28;20112;-83
2024/03/14 00:56:46;;;;;;;20.85;10.27;;;;;;;-141.50;100.00;63355.56;5015889;28;20030;-84
2024/03/14 00:59:13;;;;;;;19.25;9.95;;;;;;;-141.50;100.00;63355.56;5013263;28;20088;-83
2024/03/14 01:01:46;;;;;;;18.17;9.90;;;;;;;-141.50;100.00;63355.56;4998304;28;20070;-82
2024/03/14 01:04:13;;;;;;;18.88;9.50;;;;;;;-141.50;100.00;63355.56;5010942;28;20045;-81
2024/03/14 01:06:40;;;;;;;20.00;10.23;;;;;;;-141.50;100.00;63355.56;4998573;28;20071;-81
2024/03/14 01:09:11;;;;;;;17.90;9.55;;;;;;;-141.50;100.00;63355.56;4994605;28;20414;-81
2024/03/14 01:11:39;;;;;;;20.23;9.90;;;;;;;-141.50;100.00;63355.56;5000702;28;20528;-80
2024/03/14 01:14:08;;;;;;;20.73;9.88;;;;;;;-141.50;100.00;63355.56;5028751;28;20057;-82
2024/03/14 01:16:36;;;;;;;20.92;10.52;;;;;;;-141.50;100.00;63355.56;4999729;28;20046;-81
2024/03/14 01:19:07;;;;;;;20.55;10.68;;;;;;;-141.50;100.00;63355.56;5014071;28;20050;-81
2024/03/14 01:21:38;;;;;;;19.10;10.80;;;;;;;-141.50;100.00;63355.56;5013046;28;20049;-83
2024/03/14 01:24:05;;;;;;;19.95;10.05;;;;;;;-141.50;100.00;63355.56;5013315;28;20046;-83
2024/03/14 01:26:32;;;;;;;21.80;10.20;;;;;;;-141.50;100.00;63355.56;5012719;28;20041;-80
2024/03/14 01:29:01;;;;;;;19.05;9.57;;;;;;;-141.50;100.00;63355.56;5011655;28;20054;-81
2024/03/14 01:31:28;;;;;;;18.20;10.25;;;;;;;-141.50;100.00;63355.56;5011342;28;20046;-81
2024/03/14 01:33:54;;;;;;;18.83;10.48;;;;;;;-141.50;100.00;63355.56;5029557;28;20111;-82
2024/03/14 01:36:21;;;;;;;24.60;11.45;;;;;;;-141.50;100.00;63355.56;5024941;28;20050;-81
2024/03/14 01:38:48;;;;;;;20.65;10.57;;;;;;;-141.50;100.00;63355.56;5000639;28;20137;-80
2024/03/14 01:41:17;;;;;;;22.15;11.07;;;;;;;-141.50;100.00;63355.56;5000043;28;20052;-80
2024/03/14 01:43:59;;;;;;;19.38;11.00;;;;;;;-141.50;100.00;63355.56;5002083;28;20371;-82
2024/03/14 01:46:28;;;;;;;20.75;10.80;;;;;;;-141.50;100.00;63355.56;4994781;28;20057;-79
2024/03/14 01:48:59;;;;;;;20.60;11.02;;;;;;;-141.50;100.00;63355.56;5004360;28;20094;-80
2024/03/14 01:51:28;;;;;;;23.25;11.68;;;;;;;-141.50;100.00;63355.56;4997014;28;20053;-80
2024/03/14 01:53:55;;;;;;;21.33;11.48;;;;;;;-141.50;100.00;63355.56;5005879;28;20038;-80
2024/03/14 01:56:23;;;;;;;18.50;10.45;;;;;;;-141.50;100.00;63355.56;5009859;28;20046;-81
2024/03/14 01:58:53;;;;;;;20.17;11.68;;;;;;;-141.50;100.00;63355.56;5015279;28;20534;-81
2024/03/14 02:01:23;;;;;;;22.75;11.20;;;;;;;-141.50;100.00;63355.56;5015552;28;20168;-82
2024/03/14 02:04:01;;;;;;;23.40;11.98;;;;;;;-141.50;100.00;63355.56;5016431;28;20054;-82
2024/03/14 02:06:50;;;;;;;23.83;12.02;;;;;;;-141.50;100.00;63355.56;5009036;28;20046;-80
2024/03/14 02:09:22;;;;;;;24.05;12.13;;;;;;;-141.50;100.00;63355.56;4991543;28;20054;-81
2024/03/14 02:11:50;;;;;;;24.85;11.82;;;;;;;-141.50;100.00;63355.56;4989213;28;20054;-82
2024/03/14 02:14:17;;;;;;;23.08;11.80;;;;;;;-141.50;100.00;63355.56;5009091;28;20604;-82
2024/03/14 02:16:44;;;;;;;22.95;12.18;;;;;;;-141.50;100.00;63355.56;5004522;28;20079;-78
2024/03/14 02:19:11;;;;;;;23.23;12.32;;;;;;;-141.50;100.00;63355.56;4996417;28;20042;-82
2024/03/14 02:21:39;;;;;;;21.08;11.48;;;;;;;-141.50;100.00;63355.56;4994898;28;20356;-81
2024/03/14 02:24:06;;;;;;;24.10;12.52;;;;;;;-141.50;100.00;63355.56;5007278;28;20097;-80
2024/03/14 02:26:43;;;;;;;24.13;12.73;;;;;;;-141.50;100.00;63355.56;5015737;28;20058;-81
2024/03/14 02:29:11;;;;;;;25.05;12.50;;;;;;;-141.50;100.00;63355.56;5012484;28;20038;-82
2024/03/14 02:31:38;;;;;;;24.77;12.80;;;;;;;-141.50;100.00;63355.56;5004896;28;20057;-83
2024/03/14 02:34:04;;;;;;;25.35;11.98;;;;;;;-141.50;100.00;63355.56;4998170;28;20066;-82
2024/03/14 02:36:32;;;;;;;21.65;11.52;;;;;;;-141.50;100.00;63355.56;5010777;28;20386;-83
2024/03/14 02:38:59;;;;;;;22.48;11.07;;;;;;;-141.50;100.00;63355.56;5016447;28;20508;-84
2024/03/14 02:41:26;;;;;;;23.15;11.15;;;;;;;-141.50;100.00;63355.56;4990373;28;20536;-84
2024/03/14 02:43:53;;;;;;;21.75;11.70;;;;;;;-141.50;100.00;63355.56;4998716;28;20069;-82
2024/03/14 02:46:20;;;;;;;23.48;12.10;;;;;;;-141.50;100.00;63355.56;4996670;28;20059;-82
2024/03/14 02:48:50;;;;;;;21.77;10.73;;;;;;;-141.50;100.00;63355.56;5006452;28;20133;-81
2024/03/14 02:51:19;;;;;;;19.60;10.48;;;;;;;-141.50;100.00;63355.56;4997841;28;20065;-82
2024/03/14 02:53:46;;;;;;;20.85;10.88;;;;;;;-141.50;100.00;63355.56;5007355;28;20054;-79
2024/03/14 02:56:13;;;;;;;17.55;9.95;;;;;;;-141.50;100.00;63355.56;4995555;28;20093;-81
2024/03/14 02:58:40;;;;;;;18.80;9.52;;;;;;;-141.50;100.00;63355.56;4992136;28;20054;-80
2024/03/14 03:01:08;;;;;;;18.38;9.00;;;;;;;-141.50;100.00;63355.56;5003656;28;20050;-82
2024/03/14 03:03:38;;;;;;;17.23;9.07;;;;;;;-141.50;100.00;63355.56;4992146;28;20505;-80
2024/03/14 03:06:11;;;;;;;17.27;9.13;;;;;;;-141.50;100.00;63355.56;5021216;28;20053;-82
2024/03/14 03:08:39;;;;;;;15.20;8.57;;;;;;;-141.50;100.00;63355.56;5002685;28;20059;-80
2024/03/14 03:11:06;;;;;;;15.23;8.48;;;;;;;-141.50;100.00;63355.56;5015056;28;20416;-80
2024/03/14 03:13:34;;;;;;;15.98;8.75;;;;;;;-141.50;100.00;63355.56;5015506;28;20053;-80
2024/03/14 03:16:04;;;;;;;17.17;8.93;;;;;;;-141.50;100.00;63355.56;5017224;28;20068;-82
2024/03/14 03:18:34;;;;;;;15.90;7.70;;;;;;;-141.50;100.00;63355.56;5032980;28;20071;-82
2024/03/14 03:21:01;;;;;;;15.95;8.35;;;;;;;-141.50;100.00;63355.56;5024151;28;20136;-83
2024/03/14 03:23:28;;;;;;;18.98;9.27;;;;;;;-141.50;100.00;63355.56;5019720;28;20068;-81
2024/03/14 03:25:54;;;;;;;17.38;9.10;;;;;;;-141.50;100.00;63355.56;5020236;28;20265;-81
2024/03/14 03:28:22;;;;;;;17.00;9.30;;;;;;;-141.50;100.00;63355.56;5014257;28;20058;-82
2024/03/14 03:30:53;;;;;;;19.95;10.60;;;;;;;-141.50;100.00;63355.56;5013676;28;20046;-81
2024/03/14 03:33:20;;;;;;;20.75;10.55;;;;;;;-141.50;100.00;63355.56;5032808;28;20062;-82
2024/03/14 03:35:47;;;;;;;19.38;9.68;;;;;;;-141.50;100.00;63355.56;5018663;28;20100;-81
2024/03/14 03:38:14;;;;;;;20.98;10.65;;;;;;;-141.50;100.00;63355.56;5034394;28;20065;-83
2024/03/14 03:40:41;;;;;;;19.98;10.20;;;;;;;-141.50;100.00;63355.56;5011907;28;20049;-82
2024/03/14 03:43:08;;;;;;;20.38;10.65;;;;;;;-141.50;100.00;63355.56;5013939;28;20436;-80
2024/03/14 03:45:35;;;;;;;22.40;11.55;;;;;;;-141.50;100.00;63355.56;5027309;28;20053;-81
2024/03/14 03:48:02;;;;;;;25.60;11.25;;;;;;;-141.50;100.00;63355.56;5026539;28;20446;-84
2024/03/14 03:50:29;;;;;;;22.77;10.85;;;;;;;-141.50;100.00;63355.56;5042375;28;20118;-81
2024/03/14 03:52:55;;;;;;;21.30;10.90;;;;;;;-141.50;100.00;63355.56;5031780;28;20049;-82
2024/03/14 03:55:22;;;;;;;23.67;11.77;;;;;;;-141.50;100.00;63355.56;5025038;28;20058;-83
2024/03/14 03:57:49;;;;;;;25.27;11.07;;;;;;;-141.50;100.00;63355.56;5028676;28;20061;-83
2024/03/14 04:00:41;;;;;;;23.80;11.27;;;;;;;-141.50;100.00;63355.56;5027702;28;20416;-82
2024/03/14 04:03:08;;;;;;;24.75;11.32;;;;;;;-141.50;100.00;63355.56;5017117;28;20042;-80
2024/03/14 04:05:37;;;;;;;22.88;10.85;;;;;;;-141.50;100.00;63355.56;5012647;28;20066;-84
2024/03/14 04:08:04;;;;;;;26.83;11.43;;;;;;;-141.50;100.00;63355.56;5018370;28;20042;-82
2024/03/14 04:10:33;;;;;;;25.35;11.27;;;;;;;-141.50;100.00;63355.56;5021555;28;20598;-81
2024/03/14 04:13:00;;;;;;;25.55;11.60;;;;;;;-141.50;100.00;63355.56;5013614;28;20045;-80
2024/03/14 04:15:30;;;;;;;25.75;11.60;;;;;;;-141.50;100.00;63355.56;5023679;28;20073;-82
2024/03/14 04:17:57;;;;;;;23.73;11.32;;;;;;;-141.50;100.00;63355.56;5019267;28;20064;-81
2024/03/14 04:20:27;;;;;;;24.77;11.20;;;;;;;-141.50;100.00;63355.56;5029141;28;20065;-81
2024/03/14 04:22:56;;;;;;;24.70;10.98;;;;;;;-141.50;100.00;63355.56;5023188;28;20050;-82
2024/03/14 04:25:23;;;;;;;22.92;11.10;;;;;;;-141.50;100.00;63355.56;5021844;28;20426;-83
2024/03/14 04:27:51;;;;;;;27.42;11.75;;;;;;;-141.50;100.00;63355.56;5012894;28;20046;-82
2024/03/14 04:30:23;;;;;;;24.13;10.57;;;;;;;-141.50;100.00;63355.56;5025914;28;20499;-84
2024/03/14 04:32:57;;;;;;;25.50;11.23;;;;;;;-141.50;100.00;63355.56;5012027;28;20058;-84
2024/03/14 04:35:25;;;;;;;22.67;10.93;;;;;;;-141.50;100.00;63355.56;5038560;28;20120;-84
2024/03/14 04:37:52;;;;;;;27.45;11.88;;;;;;;-141.50;100.00;63355.56;5026172;28;20068;-83
2024/03/14 04:40:21;;;;;;;23.90;11.77;;;;;;;-141.50;100.00;63355.56;5002423;28;20153;-85
2024/03/14 04:42:55;;;;;;;24.70;11.27;;;;;;;-141.50;100.00;63355.56;5000219;28;20149;-82
2024/03/14 04:45:23;;;;;;;27.60;12.27;;;;;;;-141.50;100.00;63355.56;5019126;28;20065;-84
2024/03/14 04:47:54;;;;;;;28.92;11.82;;;;;;;-141.50;100.00;63355.56;5031315;28;20103;-85
2024/03/14 04:50:21;;;;;;;26.65;11.85;;;;;;;-141.50;100.00;63355.56;5022233;28;20038;-84
2024/03/14 04:52:57;;;;;;;25.35;12.15;;;;;;;-141.50;100.00;63355.56;5022595;28;20065;-83
2024/03/14 04:55:24;;;;;;;28.83;12.40;;;;;;;-141.50;100.00;63355.56;5009603;28;20066;-84
2024/03/14 04:57:51;;;;;;;29.83;12.23;;;;;;;-141.50;100.00;63355.56;5011484;28;20631;-84
2024/03/14 05:02:49;;;;;;;29.67;11.70;;;;;;;-141.50;100.00;63355.56;5013872;28;20514;-83
2024/03/14 05:05:17;;;;;;;26.75;11.25;;;;;;;-141.50;100.00;63355.56;5005869;28;20100;-83
2024/03/14 05:07:44;;;;;;;27.30;11.07;;;;;;;-141.50;100.00;63355.56;5014402;28;20452;-81
2024/03/14 05:10:14;;;;;;;28.63;11.43;;;;;;;-141.50;100.00;63355.56;5003049;28;20092;-82
2024/03/14 05:12:42;;;;;;;26.63;10.95;;;;;;;-141.50;100.00;63355.56;5007030;28;20110;-81
2024/03/14 05:15:10;;;;;;;24.35;11.02;;;;;;;-141.50;100.00;63355.56;5009626;28;20049;-82
2024/03/14 05:17:39;;;;;;;25.75;10.80;;;;;;;-141.50;100.00;63355.56;5010954;28;20053;-82
2024/03/14 05:20:06;;;;;;;23.75;10.30;;;;;;;-141.50;100.00;63355.56;5009977;28;20167;-83
2024/03/14 05:22:33;;;;;;;27.15;10.50;;;;;;;-141.50;100.00;63355.56;5017711;28;20057;-84
2024/03/14 05:25:05;;;;;;;24.67;10.30;;;;;;;-141.50;100.00;63355.56;5007222;28;20146;-81
2024/03/14 05:27:32;;;;;;;26.63;10.18;;;;;;;-141.50;100.00;63355.56;5000869;28;20058;-82
2024/03/14 05:29:59;;;;;;;23.70;10.10;;;;;;;-141.50;100.00;63355.56;4989821;28;20054;-84
2024/03/14 05:32:29;;;;;;;24.17;10.10;;;;;;;-141.50;100.00;63355.56;4991359;28;20053;-81
2024/03/14 05:34:57;;;;;;;21.60;9.73;;;;;;;-141.50;100.00;63355.56;4992406;28;20416;-80
2024/03/14 05:37:27;;;;;;;23.98;9.95;;;;;;;-141.50;100.00;63355.56;4990674;28;20046;-82
2024/03/14 05:39:54;;;;;;;31.42;11.52;;;;;;;-141.50;100.00;63355.56;5002423;28;20053;-83
2024/03/14 05:42:20;;;;;;;20.85;10.07;;;;;;;-141.50;100.00;63355.56;4998784;28;20054;-81
2024/03/14 05:44:48;;;;;;;23.50;9.85;;;;;;;-141.50;100.00;63355.56;4992562;28;20058;-83
2024/03/14 05:47:18;;;;;;;25.13;10.15;;;;;;;-141.50;100.00;63355.56;5004581;28;20100;-83
2024/03/14 05:49:44;;;;;;;23.58;9.70;;;;;;;-141.50;100.00;63355.56;5018751;28;20057;-84
2024/03/14 05:52:12;;;;;;;23.90;10.18;;;;;;;-141.50;100.00;63355.56;5014588;28;20052;-82
2024/03/14 05:54:39;;;;;;;29.98;10.55;;;;;;;-141.50;100.00;63355.56;5001813;28;20885;-83
2024/03/14 05:57:06;;;;;;;29.33;10.80;;;;;;;-141.50;100.00;63355.56;5010246;28;20053;-83
2024/03/14 05:59:36;;;;;;;27.88;10.73;;;;;;;-141.50;100.00;63355.56;5003823;28;20407;-83
2024/03/14 06:02:03;;;;;;;25.02;10.88;;;;;;;-141.50;100.00;63355.56;5002133;28;20492;-80
2024/03/14 06:04:30;;;;;;;26.40;9.82;;;;;;;-141.50;100.00;63355.56;5008679;28;20065;-81
2024/03/14 06:06:56;;;;;;;27.13;10.70;;;;;;;-141.50;100.00;63355.56;5010701;28;20129;-82
2024/03/14 06:09:31;;;;;;;26.60;9.43;;;;;;;-141.50;100.00;63355.56;5024893;28;20064;-81
2024/03/14 06:12:01;;;;;;;25.02;9.73;;;;;;;-141.50;100.00;63355.56;5005088;28;20046;-84
2024/03/14 06:14:29;;;;;;;27.27;9.65;;;;;;;-141.50;100.00;63355.56;4998576;28;20050;-81
2024/03/14 06:16:56;;;;;;;25.48;9.15;;;;;;;-141.50;100.00;63355.56;4991179;28;20058;-81
2024/03/14 06:19:23;;;;;;;25.80;10.05;;;;;;;-141.50;100.00;63355.56;4998947;28;20396;-81
2024/03/14 06:21:50;;;;;;;25.40;8.93;;;;;;;-141.50;100.00;63355.56;4987902;28;20065;-82
2024/03/14 06:24:17;;;;;;;19.80;8.18;;;;;;;-141.50;100.00;63355.56;4996572;28;20145;-81
2024/03/14 06:26:47;;;;;;;25.40;8.00;;;;;;;-141.50;100.00;63355.56;4988539;28;20073;-81
2024/03/14 06:29:14;;;;;;;21.58;7.53;;;;;;;-141.50;100.00;63355.56;4990291;28;20050;-83
2024/03/14 06:31:44;;;;;;;20.40;7.95;;;;;;;-141.50;100.00;63355.56;5010378;28;20049;-83
2024/03/14 06:34:11;;;;;;;19.88;8.00;;;;;;;-141.50;100.00;63355.56;4994114;28;20077;-83
2024/03/14 06:36:37;;;;;;;24.25;8.77;;;;;;;-141.50;100.00;63355.56;4993438;28;20054;-83
2024/03/14 06:39:07;;;;;;;18.60;7.75;;;;;;;-141.50;100.00;63355.56;5004897;28;20050;-83
2024/03/14 06:41:34;;;;;;;21.08;7.93;;;;;;;-141.50;100.00;63355.56;4996623;28;20454;-82
2024/03/14 06:44:01;;;;;;;26.05;8.27;;;;;;;-141.50;100.00;63355.56;4997003;28;20101;-83
2024/03/14 06:46:28;;;;;;;23.48;8.48;;;;;;;-141.50;100.00;63355.56;5003773;28;20464;-83
2024/03/14 06:48:55;;;;;;;21.30;7.72;;;;;;;-141.50;100.00;63355.56;4995706;28;20057;-84
2024/03/14 06:51:22;;;;;;;21.42;7.88;;;;;;;-141.50;100.00;63355.56;5006228;28;20711;-81
2024/03/14 06:53:49;;;;;;;20.08;7.95;;;;;;;-141.50;100.00;63355.56;5014813;28;20492;-81
2024/03/14 06:56:17;;;;;;;24.33;8.18;;;;;;;-141.50;100.00;63355.56;5004802;28;20064;-84
2024/03/14 06:58:46;;;;;;;24.65;7.50;;;;;;;-141.50;100.00;63355.56;5020644;28;20053;-83
2024/03/14 07:01:15;;;;;;;20.10;7.10;;;;;;;-141.50;100.00;63355.56;5009196;28;20085;-85
2024/03/14 07:03:42;;;;;;;17.38;6.70;;;;;;;-141.50;100.00;63355.56;4996633;28;20053;-81
2024/03/14 07:06:12;;;;;;;19.75;6.90;;;;;;;-141.50;100.00;63355.56;5013692;28;20052;-82
2024/03/14 07:08:39;;;;;;;19.38;7.22;;;;;;;-141.50;100.00;63355.56;5017558;28;20133;-82
2024/03/14 07:11:06;;;;;;;17.80;7.10;;;;;;;-141.50;100.00;63355.56;5031061;28;20041;-82
2024/03/14 07:13:35;;;;;;;18.42;6.07;;;;;;;-141.50;100.00;63355.56;5000169;28;20502;-82
2024/03/14 07:16:09;;;;;;;20.73;6.53;;;;;;;-141.50;100.00;63355.56;4995286;28;20121;-83
2024/03/14 07:18:36;;;;;;;19.15;7.07;;;;;;;-141.50;100.00;63355.56;5000195;28;20064;-82
2024/03/14 07:21:04;;;;;;;19.88;6.63;;;;;;;-141.50;100.00;63355.56;5007886;28;20046;-82
2024/03/14 07:23:33;;;;;;;20.33;7.18;;;;;;;-141.50;100.00;63355.56;5010337;28;20281;-83
2024/03/14 07:26:02;;;;;;;20.23;6.68;;;;;;;-141.50;100.00;63355.56;5022919;28;20092;-81
2024/03/14 07:28:31;;;;;;;17.90;6.60;;;;;;;-141.50;100.00;63355.56;5009437;28;20054;-82
2024/03/14 07:30:58;;;;;;;17.63;6.95;;;;;;;-141.50;100.00;63355.56;5009124;28;20127;-79
2024/03/14 07:33:26;;;;;;;18.85;7.63;;;;;;;-141.50;100.00;63355.56;4987991;28;20054;-83
2024/03/14 07:35:56;;;;;;;21.52;7.65;;;;;;;-141.50;100.00;63355.56;4987137;28;20050;-81
2024/03/14 07:38:27;;;;;;;22.60;7.50;;;;;;;-141.50;100.00;63355.56;4989633;28;20456;-81
2024/03/14 07:40:55;;;;;;;22.67;7.68;;;;;;;-141.50;100.00;63355.56;5020943;28;20049;-83
2024/03/14 07:43:22;;;;;;;22.90;7.70;;;;;;;-141.50;100.00;63355.56;5006779;28;20046;-81
2024/03/14 07:45:49;;;;;;;22.17;8.73;;;;;;;-141.50;100.00;63355.56;4998558;28;20066;-82
2024/03/14 07:48:17;;;;;;;23.73;8.80;;;;;;;-141.50;100.00;63355.56;4997292;28;20050;-80
2024/03/14 07:50:45;;;;;;;21.00;7.72;;;;;;;-141.50;100.00;63355.56;4998338;28;20058;-81
2024/03/14 07:53:12;;;;;;;21.85;7.70;;;;;;;-141.50;100.00;63355.56;5016483;28;20367;-82
2024/03/14 07:55:40;;;;;;;26.42;8.60;;;;;;;-141.50;100.00;63355.56;5020577;28;20136;-82
2024/03/14 07:58:08;;;;;;;22.38;7.45;;;;;;;-141.50;100.00;63355.56;5016170;28;20136;-82
2024/03/14 08:00:36;;;;;;;22.73;7.63;;;;;;;-141.50;100.00;63355.56;5017508;28;20599;-81
2024/03/14 08:03:04;;;;;;;19.45;7.07;;;;;;;-141.50;100.00;63355.56;5011304;28;20046;-81
2024/03/14 08:05:34;;;;;;;17.10;6.72;;;;;;;-141.50;100.00;63355.56;4991174;28;20050;-81
2024/03/14 08:08:01;;;;;;;16.13;6.38;;;;;;;-141.50;100.00;63355.56;5005301;28;20054;-82
2024/03/14 08:10:48;;;;;;;15.75;7.25;;;;;;;-141.50;100.00;63355.56;4985228;28;20112;-81
2024/03/14 08:13:21;;;;;;;12.10;5.35;;;;;;;-141.50;100.00;63355.56;4991302;28;20046;-81
2024/03/14 08:15:52;;;;;;;12.48;5.10;;;;;;;-141.50;100.00;63355.56;5011344;28;21040;-81
2024/03/14 08:18:21;;;;;;;9.82;4.30;;;;;;;-141.50;100.00;63355.56;5008575;28;20042;-82
2024/03/14 08:20:50;;;;;;;9.82;3.95;;;;;;;-141.50;100.00;63355.56;5006749;28;20061;-82
2024/03/14 08:23:17;;;;;;;10.27;4.20;;;;;;;-141.50;100.00;63355.56;4993447;28;20472;-80
2024/03/14 08:25:43;;;;;;;10.18;4.80;;;;;;;-141.50;100.00;63355.56;4988709;28;20053;-81
2024/03/14 08:28:13;;;;;;;8.50;5.28;;;;;;;-141.50;100.00;63355.56;4994768;28;20046;-81
2024/03/14 08:30:42;;;;;;;14.05;6.40;;;;;;;-141.50;100.00;63355.56;5004155;28;20115;-80
2024/03/14 08:33:09;;;;;;;10.40;6.28;;;;;;;-141.50;100.00;63355.56;4996180;28;20050;-82
2024/03/14 08:35:40;;;;;;;9.75;5.80;;;;;;;-141.50;100.00;63355.56;5004199;28;20054;-82
2024/03/14 08:38:07;;;;;;;10.95;5.88;;;;;;;-141.50;100.00;63355.56;5005151;28;20053;-82
2024/03/14 08:40:37;;;;;;;9.55;5.25;;;;;;;-141.50;100.00;63355.56;4987373;28;20054;-82
2024/03/14 08:43:05;;;;;;;11.80;5.82;;;;;;;-141.50;100.00;63355.56;4991791;28;20158;-81
2024/03/14 08:45:35;;;;;;;10.73;5.88;;;;;;;-141.50;100.00;63355.56;4991215;28;20049;-81
2024/03/14 08:48:07;;;;;;;10.57;5.93;;;;;;;-141.50;100.00;63355.56;4991608;28;20069;-82
2024/03/14 08:50:35;;;;;;;9.52;5.32;;;;;;;-141.50;100.00;63355.56;4996916;28;20054;-81
2024/03/14 08:53:02;;;;;;;10.15;5.70;;;;;;;-141.50;100.00;63355.56;5012026;28;20527;-79
2024/03/14 08:55:33;;;;;;;8.88;5.63;;;;;;;-141.50;100.00;63355.56;5004276;28;20582;-81
2024/03/14 08:58:03;;;;;;;10.43;5.00;;;;;;;-141.50;100.00;63355.56;5006731;28;20058;-81
2024/03/14 09:00:30;;;;;;;8.65;4.60;;;;;;;-141.50;100.00;63355.56;5004549;28;20054;-81
2024/03/14 09:02:59;;;;;;;11.77;5.00;;;;;;;-141.50;100.00;63355.56;4997955;28;20043;-82
2024/03/14 09:05:27;;;;;;;9.68;5.53;;;;;;;-141.50;100.00;63355.56;4990089;28;20161;-78
2024/03/14 09:07:55;;;;;;;8.65;5.03;;;;;;;-141.50;100.00;63355.56;4995880;28;20054;-82
2024/03/14 09:10:26;;;;;;;6.82;4.60;;;;;;;-141.50;100.00;63355.56;4991466;28;20382;-82
2024/03/14 09:12:53;;;;;;;7.30;4.50;;;;;;;-141.50;100.00;63355.56;4990232;28;20101;-81
2024/03/14 09:15:21;;;;;;;8.65;4.72;;;;;;;-141.50;100.00;63355.56;4991369;28;20053;-81
2024/03/14 09:17:50;;;;;;;8.95;5.07;;;;;;;-141.50;100.00;63355.56;4998720;28;20084;-79
2024/03/14 09:20:19;;;;;;;6.47;3.67;;;;;;;-141.50;100.00;63355.56;4991301;28;20046;-81
2024/03/14 09:22:53;;;;;;;5.85;3.63;;;;;;;-141.50;100.00;63355.56;4990024;28;20058;-80
2024/03/14 09:25:22;;;;;;;7.10;3.25;;;;;;;-141.50;100.00;63355.56;4997402;28;20057;-83
2024/03/14 09:27:51;;;;;;;6.75;3.72;;;;;;;-141.50;100.00;63355.56;5004660;28;20769;-81
2024/03/14 09:30:18;;;;;;;5.78;3.35;;;;;;;-141.50;100.00;63355.56;4998711;28;20088;-79
2024/03/14 09:32:48;;;;;;;5.65;3.55;;;;;;;-141.50;100.00;63355.56;4998571;28;20042;-81
2024/03/14 09:35:25;;;;;;;5.93;3.65;;;;;;;-141.50;100.00;63355.56;4991355;28;20054;-81
2024/03/14 09:37:54;;;;;;;7.43;4.10;;;;;;;-141.50;100.00;63355.56;4990782;28;20731;-82
2024/03/14 09:40:22;;;;;;;5.72;3.80;;;;;;;-141.50;100.00;63355.56;4989143;28;20511;-80
2024/03/14 09:42:58;;;;;;;5.63;3.75;;;;;;;-141.50;100.00;63355.56;4988427;28;20592;-81
2024/03/14 09:45:25;;;;;;;6.97;4.43;;;;;;;-141.50;100.00;63355.56;5008275;28;20053;-81
2024/03/14 09:47:56;;;;;;;6.90;4.60;;;;;;;-141.50;100.00;63355.56;5021536;28;20049;-82
2024/03/14 09:50:25;;;;;;;7.80;4.57;;;;;;;-141.50;100.00;63355.56;5007977;28;20443;-81
2024/03/14 09:52:54;;;;;;;7.25;4.13;;;;;;;-141.50;100.00;63355.56;5002703;28;20427;-82
2024/03/14 09:55:28;;;;;;;8.30;4.32;;;;;;;-141.50;100.00;63355.56;4990835;28;20062;-82
2024/03/14 09:57:56;;;;;;;8.40;4.60;;;;;;;-141.50;100.00;63355.56;4990826;28;20054;-81
2024/03/14 10:00:25;;;;;;;7.90;4.28;;;;;;;-141.50;100.00;63355.56;4997562;28;20058;-80
2024/03/14 10:02:53;;;;;;;8.68;4.88;;;;;;;-141.50;100.00;63355.56;4992878;28;20057;-81
2024/03/14 10:05:21;;;;;;;6.38;3.80;;;;;;;-141.50;100.00;63355.56;4993823;28;20054;-81
2024/03/14 10:07:49;;;;;;;8.20;4.28;;;;;;;-141.50;100.00;63355.56;4989130;28;20090;-81
2024/03/14 10:10:16;;;;;;;7.50;4.07;;;;;;;-141.50;100.00;63355.56;4987641;28;20042;-82
2024/03/14 10:12:53;;;;;;;8.00;4.18;;;;;;;-141.50;100.00;63355.56;4988349;28;20061;-81
2024/03/14 10:15:21;;;;;;;7.95;4.53;;;;;;;-141.50;100.00;63355.56;4990288;28;20050;-82
2024/03/14 10:17:53;;;;;;;8.10;4.20;;;;;;;-141.50;100.00;63355.56;4990956;28;20057;-81
2024/03/14 10:20:22;;;;;;;10.43;4.88;;;;;;;-141.50;100.00;63355.56;4994785;28;20144;-82
2024/03/14 10:22:49;;;;;;;7.25;3.60;;;;;;;-141.50;100.00;63355.56;5001398;28;20050;-81
2024/03/14 10:25:18;;;;;;;5.82;3.50;;;;;;;-141.50;100.00;63355.56;4992078;28;20351;-81
2024/03/14 10:27:48;;;;;;;8.40;4.38;;;;;;;-141.50;100.00;63355.56;4990752;28;20042;-81
2024/03/14 10:30:33;;;;;;;8.00;3.90;;;;;;;-141.50;100.00;63355.56;5008672;28;20065;-79
2024/03/14 10:33:04;;;;;;;8.35;4.20;;;;;;;-141.50;100.00;63355.56;5012154;28;20312;-78
2024/03/14 10:35:34;;;;;;;8.50;4.65;;;;;;;-141.50;100.00;63355.56;4995184;28;20077;-81
2024/03/14 10:38:03;;;;;;;9.70;4.32;;;;;;;-141.50;100.00;63355.56;5000325;28;20129;-80
2024/03/14 10:40:30;;;;;;;6.43;3.72;;;;;;;-141.50;100.00;63355.56;4985565;28;20104;-80
2024/03/14 10:42:57;;;;;;;6.45;3.88;;;;;;;-141.50;100.00;63355.56;5000794;28;20038;-78
2024/03/14 10:45:26;;;;;;;5.72;3.53;;;;;;;-141.50;100.00;63355.56;4989954;28;20042;-81
2024/03/14 10:47:55;;;;;;;4.55;3.05;;;;;;;-141.50;100.00;63355.56;5006672;28;20157;-81
2024/03/14 10:50:22;;;;;;;9.45;3.40;;;;;;;-141.50;100.00;63355.56;4992386;28;20124;-81
2024/03/14 10:52:50;;;;;;;5.00;2.70;;;;;;;-141.50;100.00;63355.56;4986828;28;20046;-80
2024/03/14 10:55:21;;;;;;;6.60;3.10;;;;;;;-141.50;100.00;63355.56;4993337;28;20050;-82
2024/03/14 10:57:49;;;;;;;4.18;2.40;;;;;;;-141.50;100.00;63355.56;5019985;28;20041;-81
2024/03/14 11:00:17;;;;;;;3.92;2.20;;;;;;;-141.50;100.00;63355.56;4993524;28;20642;-81
2024/03/14 11:02:49;;;;;;;3.33;1.80;;;;;;;-141.50;100.00;63355.56;4995819;28;20058;-82
2024/03/14 11:05:22;;;;;;;4.05;2.60;;;;;;;-141.50;100.00;63355.56;5001299;28;20062;-81
2024/03/14 11:08:00;;;;;;;5.28;2.30;;;;;;;-141.50;100.00;63355.56;5006998;28;20456;-80